createdAt,value
2017-10-09T00:00:02.174Z,91.90
2017-10-09T00:02:30.041Z,92.00
2017-10-09T00:04:57.908Z,92.10
2017-10-09T00:07:25.776Z,92.20
2017-10-09T00:09:53.745Z,92.20
2017-10-09T00:12:21.612Z,92.00
2017-10-09T00:14:49.480Z,92.00
2017-10-09T00:17:17.346Z,92.10
2017-10-09T00:19:45.215Z,92.00
2017-10-09T00:22:13.082Z,92.20
2017-10-09T00:24:40.950Z,92.10
2017-10-09T00:27:08.816Z,92.10
2017-10-09T00:29:39.244Z,92.10
2017-10-09T00:32:07.111Z,92.30
2017-10-09T00:34:34.981Z,92.10
2017-10-09T00:37:02.775Z,92.20
2017-10-09T00:39:31.430Z,92.10
2017-10-09T00:41:59.297Z,92.10
2017-10-09T00:44:27.164Z,92.00
2017-10-09T00:46:54.928Z,91.90
2017-10-09T00:49:22.797Z,92.10
2017-10-09T00:51:50.665Z,92.00
2017-10-09T00:54:18.531Z,92.10
2017-10-09T00:56:46.398Z,92.20
2017-10-09T00:59:14.265Z,92.20
2017-10-09T01:01:42.132Z,92.60
2017-10-09T01:04:10.000Z,92.90
2017-10-09T01:06:37.868Z,92.80
2017-10-09T01:09:05.735Z,92.80
2017-10-09T01:11:33.602Z,92.80
2017-10-09T01:14:01.469Z,92.70
2017-10-09T01:16:29.337Z,92.60
2017-10-09T01:18:57.203Z,92.50
2017-10-09T01:21:26.096Z,92.60
2017-10-09T01:23:54.065Z,92.50
2017-10-09T01:26:21.936Z,92.50
2017-10-09T01:28:49.800Z,92.40
2017-10-09T01:31:17.667Z,92.50
2017-10-09T01:33:45.535Z,92.70
2017-10-09T01:36:13.401Z,93.00
2017-10-09T01:38:41.269Z,93.40
2017-10-09T01:41:09.136Z,93.10
2017-10-09T01:43:37.004Z,93.00
2017-10-09T01:46:04.963Z,93.10
2017-10-09T01:48:32.841Z,93.10
2017-10-09T01:51:00.709Z,93.10
2017-10-09T01:53:28.575Z,93.10
2017-10-09T01:55:56.441Z,93.10
2017-10-09T01:58:24.311Z,93.00
2017-10-09T02:00:52.177Z,92.90
2017-10-09T02:03:20.045Z,92.70
2017-10-09T02:05:47.912Z,92.60
2017-10-09T02:08:15.779Z,92.50
2017-10-09T02:10:43.646Z,92.60
2017-10-09T02:13:11.513Z,92.60
2017-10-09T02:15:39.381Z,92.60
2017-10-09T02:18:07.249Z,92.70
2017-10-09T02:20:35.051Z,92.80
2017-10-09T02:23:03.700Z,92.60
2017-10-09T02:25:31.568Z,92.60
2017-10-09T02:27:59.462Z,92.70
2017-10-09T02:30:27.306Z,92.70
2017-10-09T02:32:55.888Z,92.70
2017-10-09T02:35:23.755Z,92.70
2017-10-09T02:37:51.625Z,92.70
2017-10-09T02:40:19.492Z,92.70
2017-10-09T02:42:47.360Z,92.60
2017-10-09T02:45:15.225Z,92.60
2017-10-09T02:47:43.091Z,92.80
2017-10-09T02:50:10.956Z,92.80
2017-10-09T02:52:38.824Z,92.80
2017-10-09T02:55:06.630Z,92.80
2017-10-09T02:57:35.275Z,92.60
2017-10-09T03:00:03.143Z,92.60
2017-10-09T03:02:31.012Z,92.50
2017-10-09T03:04:58.878Z,92.50
2017-10-09T03:07:26.745Z,92.50
2017-10-09T03:09:54.612Z,92.50
2017-10-09T03:12:22.480Z,92.60
2017-10-09T03:14:50.347Z,92.70
2017-10-09T03:17:18.219Z,93.60
2017-10-09T03:19:46.081Z,94.30
2017-10-09T03:22:28.796Z,95.00
2017-10-09T03:25:11.513Z,95.10
2017-10-09T03:27:46.064Z,94.40
2017-10-09T03:30:16.671Z,94.50
2017-10-09T03:32:44.536Z,94.40
2017-10-09T03:35:12.402Z,94.50
2017-10-09T03:37:40.270Z,94.50
2017-10-09T03:40:08.131Z,94.60
2017-10-09T03:42:36.005Z,94.40
2017-10-09T03:45:03.873Z,94.20
2017-10-09T03:47:31.740Z,94.20
2017-10-09T03:49:59.607Z,94.00
2017-10-09T03:52:27.474Z,93.90
2017-10-09T03:54:55.341Z,93.90
2017-10-09T03:57:23.210Z,93.70
2017-10-09T03:59:51.076Z,93.60
2017-10-09T04:02:18.944Z,93.70
2017-10-09T04:04:46.810Z,93.30
2017-10-09T04:07:14.611Z,93.20
2017-10-09T04:09:43.262Z,93.20
2017-10-09T04:12:11.130Z,93.20
2017-10-09T04:14:38.997Z,93.20
2017-10-09T04:17:06.863Z,93.10
2017-10-09T04:19:35.346Z,93.00
2017-10-09T04:22:03.213Z,93.00
2017-10-09T04:24:31.080Z,93.00
2017-10-09T04:26:58.948Z,93.00
2017-10-09T04:29:26.815Z,93.10
2017-10-09T04:31:54.683Z,93.20
2017-10-09T04:34:22.549Z,93.00
2017-10-09T04:36:50.417Z,93.00
2017-10-09T04:39:18.285Z,93.40
2017-10-09T04:41:46.151Z,93.40
2017-10-09T04:44:14.018Z,93.70
2017-10-09T04:46:41.886Z,93.40
2017-10-09T04:49:09.753Z,93.40
2017-10-09T04:51:37.620Z,93.30
2017-10-09T04:54:05.488Z,93.30
2017-10-09T04:56:33.355Z,93.50
2017-10-09T04:59:01.221Z,93.70
2017-10-09T05:01:29.090Z,93.70
2017-10-09T05:03:56.956Z,93.70
2017-10-09T05:06:24.824Z,93.90
2017-10-09T05:08:52.692Z,93.90
2017-10-09T05:11:20.558Z,94.00
2017-10-09T05:13:48.426Z,93.90
2017-10-09T05:16:16.293Z,93.90
2017-10-09T05:18:44.161Z,94.10
2017-10-09T05:21:12.028Z,94.10
2017-10-09T05:23:39.895Z,94.00
2017-10-09T05:26:07.763Z,94.00
2017-10-09T05:28:35.630Z,93.90
2017-10-09T05:31:03.497Z,93.80
2017-10-09T05:33:31.369Z,93.90
2017-10-09T05:35:59.236Z,94.60
2017-10-09T05:38:27.101Z,94.60
2017-10-09T05:40:54.967Z,94.40
2017-10-09T05:43:22.838Z,94.20
2017-10-09T05:45:50.705Z,94.20
2017-10-09T05:48:18.571Z,94.00
2017-10-09T05:50:46.437Z,94.00
2017-10-09T05:53:14.303Z,93.80
2017-10-09T05:55:42.273Z,93.70
2017-10-09T05:58:10.140Z,93.60
2017-10-09T06:00:38.007Z,93.50
2017-10-09T06:03:05.875Z,93.70
2017-10-09T06:05:33.742Z,93.60
2017-10-09T06:08:01.609Z,93.70
2017-10-09T06:10:29.477Z,93.70
2017-10-09T06:12:57.344Z,93.80
2017-10-09T06:15:25.211Z,93.70
2017-10-09T06:17:53.081Z,93.80
2017-10-09T06:20:20.946Z,94.10
2017-10-09T06:22:48.813Z,94.30
2017-10-09T06:25:16.681Z,94.20
2017-10-09T06:27:44.548Z,94.20
2017-10-09T06:30:12.416Z,94.20
2017-10-09T06:32:40.282Z,94.30
2017-10-09T06:35:08.150Z,94.40
2017-10-09T06:37:36.017Z,94.30
2017-10-09T06:40:03.885Z,94.20
2017-10-09T06:42:31.751Z,94.50
2017-10-09T06:44:59.620Z,94.50
2017-10-09T06:47:27.486Z,94.40
2017-10-09T06:49:55.354Z,94.40
2017-10-09T06:52:23.221Z,94.30
2017-10-09T06:54:51.088Z,94.40
2017-10-09T06:57:18.955Z,94.40
2017-10-09T06:59:46.823Z,94.30
2017-10-09T07:02:14.690Z,94.10
2017-10-09T07:04:42.560Z,93.60
2017-10-09T07:07:10.424Z,93.80
2017-10-09T07:09:38.292Z,93.70
2017-10-09T07:12:06.159Z,93.30
2017-10-09T07:14:34.027Z,93.50
2017-10-09T07:17:01.894Z,93.50
2017-10-09T07:19:29.762Z,93.30
2017-10-09T07:21:57.627Z,93.30
2017-10-09T07:24:25.395Z,93.30
2017-10-09T07:26:53.260Z,93.70
2017-10-09T07:29:21.128Z,93.60
2017-10-09T07:31:48.996Z,93.50
2017-10-09T07:34:16.864Z,93.70
2017-10-09T07:36:44.730Z,93.80
2017-10-09T07:39:12.699Z,93.90
2017-10-09T07:41:40.567Z,93.90
2017-10-09T07:44:08.436Z,93.80
2017-10-09T07:46:36.302Z,94.00
2017-10-09T07:49:04.169Z,93.90
2017-10-09T07:51:32.036Z,93.90
2017-10-09T07:53:59.903Z,93.90
2017-10-09T07:56:27.771Z,93.80
2017-10-09T07:58:55.638Z,94.10
2017-10-09T08:01:23.505Z,93.40
2017-10-09T08:03:51.374Z,93.50
2017-10-09T08:06:19.240Z,93.40
2017-10-09T08:08:47.209Z,93.00
2017-10-09T08:11:15.077Z,92.90
2017-10-09T08:13:42.986Z,93.00
2017-10-09T08:16:11.631Z,93.10
2017-10-09T08:18:39.498Z,93.10
2017-10-09T08:21:07.468Z,92.80
2017-10-09T08:23:35.335Z,92.80
2017-10-09T08:26:03.203Z,92.90
2017-10-09T08:28:31.069Z,92.30
2017-10-09T08:30:58.936Z,92.40
2017-10-09T08:33:26.804Z,92.50
2017-10-09T08:35:54.672Z,92.10
2017-10-09T08:38:22.544Z,91.90
2017-10-09T08:40:50.411Z,91.90
2017-10-09T08:43:18.278Z,92.00
2017-10-09T08:45:46.143Z,91.80
2017-10-09T08:48:14.013Z,90.60
2017-10-09T08:50:41.880Z,90.30
2017-10-09T08:53:09.745Z,90.20
2017-10-09T08:55:37.715Z,90.50
2017-10-09T08:58:05.581Z,90.50
2017-10-09T09:00:33.447Z,90.00
2017-10-09T09:03:01.420Z,89.70
2017-10-09T09:05:29.284Z,90.20
2017-10-09T09:07:57.152Z,90.40
2017-10-09T09:10:25.019Z,90.50
2017-10-09T09:12:52.886Z,90.40
2017-10-09T09:15:20.753Z,90.30
2017-10-09T09:17:48.621Z,88.70
2017-10-09T09:20:16.488Z,87.60
2017-10-09T09:22:44.355Z,87.80
2017-10-09T09:25:12.222Z,88.90
2017-10-09T09:27:40.090Z,88.30
2017-10-09T09:30:07.958Z,87.90
2017-10-09T09:32:35.825Z,88.90
2017-10-09T09:35:03.691Z,89.90
2017-10-09T09:37:31.559Z,88.10
2017-10-09T09:39:59.427Z,87.60
2017-10-09T09:42:27.293Z,87.50
2017-10-09T09:44:55.162Z,86.70
2017-10-09T09:47:23.028Z,87.20
2017-10-09T09:49:50.896Z,87.10
2017-10-09T09:52:18.763Z,86.60
2017-10-09T09:54:46.732Z,86.60
2017-10-09T09:57:14.599Z,85.90
2017-10-09T09:59:42.467Z,87.70
2017-10-09T10:02:10.261Z,88.50
2017-10-09T10:04:38.100Z,89.10
2017-10-09T10:07:05.966Z,88.80
2017-10-09T10:09:33.834Z,88.00
2017-10-09T10:12:01.703Z,89.40
2017-10-09T10:14:29.569Z,86.70
2017-10-09T10:16:57.436Z,86.40
2017-10-09T10:19:25.235Z,87.50
2017-10-09T10:21:53.887Z,88.30
2017-10-09T10:24:21.754Z,88.30
2017-10-09T10:26:49.622Z,87.70
2017-10-09T10:29:17.489Z,86.20
2017-10-09T10:31:45.357Z,86.90
2017-10-09T10:34:13.224Z,87.50
2017-10-09T10:36:41.091Z,84.40
2017-10-09T10:39:08.960Z,84.90
2017-10-09T10:41:36.825Z,85.90
2017-10-09T10:44:04.692Z,85.40
2017-10-09T10:46:32.565Z,86.70
2017-10-09T10:49:00.428Z,86.30
2017-10-09T10:51:28.295Z,84.50
2017-10-09T10:53:56.164Z,83.10
2017-10-09T10:56:24.049Z,83.50
2017-10-09T10:58:52.318Z,81.60
2017-10-09T11:01:20.177Z,79.40
2017-10-09T11:03:48.043Z,76.10
2017-10-09T11:06:15.908Z,78.10
2017-10-09T11:08:43.778Z,74.70
2017-10-09T11:11:11.950Z,74.90
2017-10-09T11:13:39.821Z,75.60
2017-10-09T11:16:07.685Z,75.50
2017-10-09T11:18:35.551Z,77.00
2017-10-09T11:21:03.424Z,77.60
2017-10-09T11:23:31.286Z,76.60
2017-10-09T11:25:59.153Z,76.80
2017-10-09T11:28:27.021Z,77.40
2017-10-09T11:30:56.001Z,78.30
2017-10-09T11:33:23.882Z,78.70
2017-10-09T11:35:51.750Z,79.10
2017-10-09T11:38:19.616Z,78.30
2017-10-09T11:40:47.485Z,77.40
2017-10-09T11:43:15.351Z,77.40
2017-10-09T11:45:43.219Z,78.20
2017-10-09T11:48:11.087Z,76.70
2017-10-09T11:50:38.957Z,77.50
2017-10-09T11:53:06.822Z,78.50
2017-10-09T11:55:36.458Z,80.10
2017-10-09T11:58:04.610Z,81.10
2017-10-09T12:00:32.405Z,80.60
2017-10-09T12:03:00.956Z,80.30
2017-10-09T12:05:28.824Z,80.20
2017-10-09T12:07:56.688Z,81.00
2017-10-09T12:10:28.082Z,79.30
2017-10-09T12:12:56.891Z,82.90
2017-10-09T12:15:29.003Z,82.80
2017-10-09T12:17:56.963Z,81.80
2017-10-09T12:20:24.830Z,80.60
2017-10-09T12:22:52.697Z,81.00
2017-10-09T12:25:20.565Z,80.60
2017-10-09T12:27:48.432Z,80.10
2017-10-09T12:30:16.401Z,81.20
2017-10-09T12:32:44.261Z,81.90
2017-10-09T12:35:12.136Z,81.80
2017-10-09T12:37:40.004Z,81.60
2017-10-09T12:40:07.874Z,81.90
2017-10-09T12:42:35.739Z,83.50
2017-10-09T12:45:03.598Z,84.60
2017-10-09T12:47:31.473Z,85.70
2017-10-09T12:49:59.340Z,86.50
2017-10-09T12:52:27.207Z,86.90
2017-10-09T12:54:55.075Z,87.80
2017-10-09T12:57:22.942Z,89.60
2017-10-09T12:59:50.810Z,89.40
2017-10-09T13:02:18.677Z,87.50
2017-10-09T13:04:46.646Z,82.30
2017-10-09T13:07:14.515Z,82.20
2017-10-09T13:09:42.381Z,79.80
2017-10-09T13:12:10.175Z,81.00
2017-10-09T13:14:38.013Z,80.70
2017-10-09T13:17:05.880Z,79.80
2017-10-09T13:19:33.748Z,76.90
2017-10-09T13:22:01.616Z,80.20
2017-10-09T13:24:29.482Z,74.30
2017-10-09T13:26:57.350Z,75.00
2017-10-09T13:29:25.218Z,76.40
2017-10-09T13:31:53.085Z,76.40
2017-10-09T13:34:20.953Z,76.30
2017-10-09T13:36:48.820Z,76.20
2017-10-09T13:39:16.686Z,79.10
2017-10-09T13:41:44.554Z,78.60
2017-10-09T13:44:12.422Z,76.00
2017-10-09T13:46:40.289Z,76.50
2017-10-09T13:49:08.159Z,76.90
2017-10-09T13:51:36.023Z,76.10
2017-10-09T13:54:03.891Z,77.30
2017-10-09T13:56:31.757Z,76.60
2017-10-09T13:58:59.625Z,77.20
2017-10-09T14:01:27.493Z,79.60
2017-10-09T14:03:55.769Z,80.00
2017-10-09T14:06:23.638Z,81.60
2017-10-09T14:08:51.503Z,81.00
2017-10-09T14:11:19.372Z,82.00
2017-10-09T14:13:47.240Z,80.90
2017-10-09T14:16:15.108Z,81.70
2017-10-09T14:18:42.974Z,82.60
2017-10-09T14:21:10.770Z,83.30
2017-10-09T14:23:39.322Z,84.30
2017-10-09T14:26:07.292Z,84.30
2017-10-09T14:28:35.159Z,85.80
2017-10-09T14:31:03.032Z,87.20
2017-10-09T14:40:53.882Z,88.20
2017-10-09T14:43:21.750Z,86.50
2017-10-09T14:45:49.616Z,85.90
2017-10-09T14:48:17.483Z,84.10
2017-10-09T14:50:45.355Z,85.70
2017-10-09T14:53:13.223Z,85.40
2017-10-09T14:55:41.085Z,84.00
2017-10-09T14:58:08.958Z,83.90
2017-10-09T15:00:36.824Z,84.70
2017-10-09T15:03:04.689Z,84.00
2017-10-09T15:05:32.560Z,85.50
2017-10-09T15:08:00.426Z,85.40
2017-10-09T15:10:30.887Z,85.40
2017-10-09T15:13:02.242Z,86.00
2017-10-09T15:15:32.902Z,86.70
2017-10-09T15:18:02.650Z,86.70
2017-10-09T15:20:30.784Z,86.60
2017-10-09T15:23:01.536Z,87.80
2017-10-09T15:25:31.493Z,87.80
2017-10-09T15:27:59.336Z,88.10
2017-10-09T15:30:27.203Z,88.50
2017-10-09T15:32:55.072Z,89.70
2017-10-09T15:35:22.938Z,90.40
2017-10-09T15:37:50.806Z,90.90
2017-10-09T15:40:18.672Z,91.10
2017-10-09T15:42:46.538Z,91.60
2017-10-09T15:45:14.408Z,92.00
2017-10-09T15:47:42.376Z,92.80
2017-10-09T15:50:10.170Z,93.90
2017-10-09T15:52:38.827Z,94.20
2017-10-09T15:55:06.797Z,94.20
2017-10-09T15:57:34.664Z,94.30
2017-10-09T16:00:02.635Z,94.20
2017-10-09T16:02:30.502Z,94.40
2017-10-09T16:04:58.574Z,95.00
2017-10-09T16:07:26.442Z,94.80
2017-10-09T16:09:54.308Z,94.00
2017-10-09T16:12:22.175Z,94.20
2017-10-09T16:14:50.043Z,93.90
2017-10-09T16:17:17.929Z,94.10
2017-10-09T16:19:46.494Z,94.30
2017-10-09T16:22:14.362Z,94.40
2017-10-09T16:24:42.229Z,94.20
2017-10-09T16:27:10.097Z,94.10
2017-10-09T16:29:37.964Z,94.10
2017-10-09T16:32:05.831Z,94.00
2017-10-09T16:34:33.703Z,94.10
2017-10-09T16:37:01.566Z,93.90
2017-10-09T16:39:29.433Z,93.80
2017-10-09T16:41:57.301Z,93.90
2017-10-09T16:44:25.167Z,93.90
2017-10-09T16:46:53.034Z,93.70
2017-10-09T16:49:20.901Z,93.60
2017-10-09T16:51:48.770Z,93.90
2017-10-09T16:54:16.636Z,94.20
2017-10-09T16:56:44.506Z,94.20
2017-10-09T16:59:12.268Z,94.20
2017-10-09T17:01:40.136Z,94.40
2017-10-09T17:04:08.006Z,94.80
2017-10-09T17:06:35.870Z,95.20
2017-10-09T17:09:03.841Z,95.50
2017-10-09T17:11:31.707Z,95.40
2017-10-09T17:13:59.576Z,95.30
2017-10-09T17:16:27.444Z,95.60
2017-10-09T17:18:55.311Z,96.00
2017-10-09T17:21:23.177Z,96.10
2017-10-09T17:23:51.045Z,95.90
2017-10-09T17:26:18.912Z,95.60
2017-10-09T17:28:46.785Z,95.50
2017-10-09T17:31:15.465Z,95.50
2017-10-09T17:33:43.349Z,95.50
2017-10-09T17:36:11.195Z,95.50
2017-10-09T17:38:39.068Z,95.50
2017-10-09T17:41:06.935Z,95.60
2017-10-09T17:43:34.803Z,95.50
2017-10-09T17:46:02.770Z,95.40
2017-10-09T17:48:30.639Z,95.30
2017-10-09T17:50:58.507Z,95.20
2017-10-09T17:53:26.373Z,95.10
2017-10-09T17:55:54.241Z,95.20
2017-10-09T17:58:22.109Z,95.20
2017-10-09T18:00:49.976Z,95.00
2017-10-09T18:03:17.844Z,94.70
2017-10-09T18:05:45.711Z,94.60
2017-10-09T18:08:13.578Z,94.70
2017-10-09T18:10:41.450Z,95.00
2017-10-09T18:13:09.316Z,95.10
2017-10-09T18:15:37.188Z,95.00
2017-10-09T18:18:05.052Z,95.00
2017-10-09T18:20:32.918Z,95.00
2017-10-09T18:23:00.787Z,95.00
2017-10-09T18:25:28.652Z,95.00
2017-10-09T18:27:56.518Z,95.00
2017-10-09T18:30:24.384Z,94.90
2017-10-09T18:32:52.251Z,94.80
2017-10-09T18:35:20.119Z,94.80
2017-10-09T18:37:47.990Z,94.60
2017-10-09T18:40:15.854Z,94.60
2017-10-09T18:42:43.720Z,94.70
2017-10-09T18:45:11.587Z,94.80
2017-10-09T18:47:39.459Z,94.70
2017-10-09T18:50:07.353Z,94.70
2017-10-09T18:52:35.190Z,94.70
2017-10-09T18:55:03.056Z,94.80
2017-10-09T18:57:30.924Z,94.90
2017-10-09T18:59:58.796Z,94.80
2017-10-09T19:02:26.658Z,94.80
2017-10-09T19:04:54.525Z,94.80
2017-10-09T19:07:22.394Z,94.70
2017-10-09T19:09:50.261Z,94.60
2017-10-09T19:12:18.127Z,94.60
2017-10-09T19:14:45.996Z,94.60
2017-10-09T19:17:13.868Z,94.60
2017-10-09T19:19:41.729Z,94.60
2017-10-09T19:22:09.598Z,94.50
2017-10-09T19:24:37.466Z,94.40
2017-10-09T19:27:05.332Z,94.50
2017-10-09T19:29:33.199Z,94.40
2017-10-09T19:32:01.066Z,94.50
2017-10-09T19:34:28.934Z,94.40
2017-10-09T19:36:56.800Z,94.40
2017-10-09T19:39:24.668Z,94.30
2017-10-09T19:41:52.536Z,94.30
2017-10-09T19:44:20.403Z,94.30
2017-10-09T19:46:48.269Z,94.30
2017-10-09T19:49:16.137Z,94.10
2017-10-09T19:51:44.005Z,94.30
2017-10-09T19:54:11.872Z,94.20
2017-10-09T19:56:39.669Z,94.20
2017-10-09T19:59:08.264Z,94.90
2017-10-09T20:01:36.118Z,94.50
2017-10-09T20:04:03.956Z,94.60
2017-10-09T20:06:31.823Z,94.50
2017-10-09T20:11:33.394Z,94.40
2017-10-09T20:14:01.263Z,94.40
2017-10-09T20:16:29.128Z,94.30
2017-10-09T20:18:56.996Z,94.30
2017-10-09T20:21:24.864Z,94.30
2017-10-09T20:23:52.670Z,94.30
2017-10-09T20:26:21.316Z,94.20
2017-10-09T20:28:49.183Z,94.20
2017-10-09T20:31:17.051Z,94.20
2017-10-09T20:33:44.917Z,94.30
2017-10-09T20:36:12.785Z,94.30
2017-10-09T20:38:40.663Z,94.30
2017-10-09T20:41:08.519Z,94.30
2017-10-09T20:43:36.394Z,94.40
2017-10-09T20:46:04.253Z,94.40
2017-10-09T20:48:32.122Z,94.30
2017-10-09T20:50:59.989Z,94.30
2017-10-09T20:53:27.867Z,94.30
2017-10-09T20:55:55.723Z,94.30
2017-10-09T20:58:23.590Z,94.30
2017-10-09T21:00:51.458Z,94.30
2017-10-09T21:03:19.325Z,94.20
2017-10-09T21:05:47.193Z,94.30
2017-10-09T21:08:15.060Z,94.30
2017-10-09T21:10:42.931Z,94.20
2017-10-09T21:13:10.795Z,94.10
2017-10-09T21:15:38.661Z,94.20
2017-10-09T21:18:06.530Z,94.20
2017-10-09T21:20:34.396Z,94.30
2017-10-09T21:23:02.299Z,94.30
2017-10-09T21:25:30.952Z,94.20
2017-10-09T21:27:58.818Z,94.20
2017-10-09T21:30:26.689Z,94.10
2017-10-09T21:32:54.557Z,94.20
2017-10-09T21:35:22.424Z,94.20
2017-10-09T21:37:50.289Z,94.30
2017-10-09T21:40:18.155Z,94.30
2017-10-09T21:42:46.020Z,94.20
2017-10-09T21:45:13.889Z,94.10
2017-10-09T21:47:41.756Z,94.20
2017-10-09T21:50:09.627Z,94.20
2017-10-09T21:52:37.491Z,94.20
2017-10-09T21:55:05.358Z,94.00
2017-10-09T21:57:33.225Z,94.20
2017-10-09T22:00:01.093Z,94.20
2017-10-09T22:02:28.960Z,94.30
2017-10-09T22:04:56.940Z,94.50
2017-10-09T22:07:25.719Z,94.40
2017-10-09T22:09:53.586Z,94.40
2017-10-09T22:12:21.453Z,94.40
2017-10-09T22:14:49.321Z,94.50
2017-10-09T22:17:17.188Z,94.50
2017-10-09T22:19:45.055Z,94.40
2017-10-09T22:22:12.923Z,94.40
2017-10-09T22:24:40.790Z,94.40
2017-10-09T22:27:08.657Z,94.40
2017-10-09T22:29:36.524Z,94.40
2017-10-09T22:32:04.392Z,94.50
2017-10-09T22:34:32.259Z,94.60
2017-10-09T22:37:00.128Z,94.50
2017-10-09T22:39:27.993Z,94.40
2017-10-09T22:41:55.861Z,94.30
2017-10-09T22:44:23.729Z,94.30
2017-10-09T22:46:51.596Z,94.40
2017-10-09T22:49:19.464Z,94.50
2017-10-09T22:51:47.331Z,94.60
2017-10-09T22:54:15.197Z,94.60
2017-10-09T22:56:43.066Z,94.80
2017-10-09T22:59:10.937Z,94.90
2017-10-09T23:01:38.800Z,94.90
2017-10-09T23:04:06.668Z,95.00
2017-10-09T23:06:34.462Z,95.10
2017-10-09T23:09:02.298Z,95.20
2017-10-09T23:11:30.094Z,95.30
2017-10-09T23:13:57.932Z,95.40
2017-10-09T23:16:25.800Z,95.40
2017-10-09T23:18:53.666Z,95.40
2017-10-09T23:21:21.533Z,95.40
2017-10-09T23:23:49.400Z,95.50
2017-10-09T23:26:17.270Z,95.40
2017-10-09T23:28:45.136Z,95.60
2017-10-09T23:31:13.002Z,95.70
2017-10-09T23:33:40.873Z,95.80
2017-10-09T23:36:08.737Z,95.80
2017-10-09T23:38:36.605Z,95.80
2017-10-09T23:41:04.472Z,95.80
2017-10-09T23:43:32.340Z,95.90
2017-10-09T23:46:00.207Z,95.80
2017-10-09T23:48:28.074Z,95.70
2017-10-09T23:50:55.942Z,95.70
2017-10-09T23:53:23.809Z,95.70
2017-10-09T23:55:51.676Z,95.70
2017-10-09T23:58:19.544Z,95.50
